Nova Era, Brazil
Current Conditions -  °F | °C
As of 12:00 PM on Wednesday 28 Jan 2015 (Local Time) from SBLS Reporting Station
Broken Clouds Broken Clouds  
Wind Chill: 81°   Ceiling: 2500
Heat Index: 83°   Visibility: 6mi
Dew Point: 66°   Wind: 0mph
Humidity: 61%   Direction: NA
Pressure: 30.12"   Gusts: NA
Location:  19.75°S, 43.04°W
Report Text: SBLS 281400Z 00000KT 9999 BKN025 27/19 Q1020
Loading
Personal Weather Stations






























Interactive Weather Map New forecast layout! Learn more

10-Day Weather Forecast

Advertisements
Track Severe Weather on mobile